KBOK/BOK METAR and TAF weather

Enter ICAO airport designator
Station Type Date Time Source
KBOK METAR 2018/10/21 03:15 UTC NOAA

KBOK 210315Z AUTO 00000KT 1/4SM -RA FG SCT004 OVC009 08/08 A2999 RMK AO2 CIG 005V012 P0000


Station Type Date Time Source
KBOK Decoded METAR 2018/10/21 03:15 UTC NOAA

Brookings, Brookings Airport, OR, United States (KBOK) 42-04-28N 124-17-24W
Oct 20, 2018 - 11:15 PM EDT / 2018.10.21 0315 UTC
Wind: Calm:0
Visibility: 1/4 mile(s):0
Sky conditions: overcast
Weather: light rain; fog
Precipitation last hour: A trace
Temperature: 46 F (8 C)
Dew Point: 46 F (8 C)
Relative Humidity: 100%
Pressure (altimeter): 29.99 in. Hg (1015 hPa)
ob: KBOK 210315Z AUTO 00000KT 1/4SM -RA FG SCT004 OVC009 08/08 A2999 RMK AO2 CIG 005V012 P0000
cycle: 3

Station Type Date Time Source
KBOK TAF UTC NOAA

Error!


Example: see airport list